Nearby METAR Reports

 

KSJC - San Jose, California, USA
Distance from station: NE 9mi, 14km
Updated: Fri, 18-Oct-2019 12:53pm PDT
Partly cloudy
Partly cloudy
 Wind from NNW
Wind: NNW 12 mph , 19 km/h
Temperature: 70°F , 21°C
Dew Point: 55°F , 13°C
Humidity: 60%
Barometer: 30.08 inHg , 1018.6 hPa
Clouds: Partly cloudy
Visibility: 10 miles , 16 km
Cloud details: Few Clouds 3200 ft
Partly cloudy 8000 ft
Partly cloudy 12000 ft
2019/10/18 19:53 KSJC 181953Z 34010KT 10SM FEW032 SCT080 SCT120 21/13 A3008 RMK AO2 SLP184 T02110128
KNUQ - Moffett Nas/Mtn, California, USA
Distance from station: N 9mi, 14km
Updated: Fri, 18-Oct-2019 12:56pm PDT

 
Barometer: 30.08 inHg , 1018.6 hPa
2019/10/18 19:56 KNUQ 181956Z A3008 RMK AO2 SLP190 PWINO $
 
KPAO - Palo Alto, California, USA
Distance from station: NNW 14mi, 23km
Updated: Fri, 18-Oct-2019 12:47pm PDT
Partly cloudy
Partly cloudy
 Wind from NNW
Wind: NNW 13 mph , 20 km/h
Temperature: 66°F , 19°C
Dew Point: 57°F , 14°C
Humidity: 73%
Barometer: 30.08 inHg , 1018.6 hPa
Clouds: Partly cloudy
Visibility: 10 miles , 16 km
Cloud details: Few Clouds 4000 ft
Partly cloudy 12000 ft
2019/10/18 19:47 KPAO 181947Z 34011KT 10SM FEW040 SCT120 19/14 A3008
KRHV - San Jose/Reid, California, USA
Distance from station: ENE 12mi, 19km
Updated: Fri, 18-Oct-2019 12:47pm PDT
Clear
Clear
 Wind from NW
Wind: NW 7 mph , 11 km/h
Temperature: 70°F , 21°C
Dew Point: 52°F , 11°C
Humidity: 53%
Barometer: 30.08 inHg , 1018.6 hPa
Clouds: Clear
Visibility: 10 miles , 16 km
2019/10/18 19:47 KRHV 181947Z 32006KT 10SM SKC 21/11 A3008
 
KOAK - Oakland, California, USA
Distance from station: NNW 31mi, 50km
Updated: Fri, 18-Oct-2019 12:53pm PDT
Partly cloudy
Partly cloudy
 Wind from W
Wind: W 15 mph , 24 km/h
Temperature: 66°F , 19°C
Dew Point: 55°F , 13°C
Humidity: 68%
Barometer: 30.08 inHg , 1018.6 hPa
Clouds: Partly cloudy
Visibility: 10 miles , 16 km
Cloud details: Few Clouds 1000 ft
Partly cloudy 20000 ft
2019/10/18 19:53 KOAK 181953Z 26013KT 10SM FEW010 SCT200 19/13 A3008 RMK AO2 SLP185 T01890128
KSQL - San Carlos Airpo, California, USA
Distance from station: NW 21mi, 34km
Updated: Fri, 18-Oct-2019 12:49pm PDT
Mostly cloudy
Mostly cloudy
 Wind from WSW
Wind: WSW 10 mph , 17 km/h, Gust: 16 mph , 26 km/h
Temperature: 68°F , 20°C
Dew Point: 54°F , 12°C
Humidity: 60%
Barometer: 30.09 inHg , 1019 hPa
Clouds: Mostly cloudy
Visibility: 10 miles , 16 km
Cloud details: Partly cloudy 3200 ft
Mostly cloudy 3800 ft
2019/10/18 19:49 KSQL 181949Z 25009G14KT 10SM SCT032 BKN038 20/12 A3009
 
KSFO - San Francisco, California, USA
Distance from station: NW 30mi, 49km
Updated: Fri, 18-Oct-2019 12:56pm PDT
Mostly cloudy
Mostly cloudy
 Wind from W
Wind: W 15 mph , 24 km/h
Temperature: 64°F , 18°C
Dew Point: 55°F , 13°C
Humidity: 73%
Barometer: 30.08 inHg , 1018.6 hPa
Clouds: Mostly cloudy
Visibility: 10 miles , 16 km
Cloud details: Partly cloudy 1800 ft
Mostly cloudy 18000 ft
2019/10/18 19:56 KSFO 181956Z 26013KT 10SM SCT018 BKN180 18/13 A3008 RMK AO2 SLP184 T01830128
KE16 - San Martin, California, USA
Distance from station: ESE 27mi, 43km
Updated: Fri, 18-Oct-2019 1:15pm PDT
Clear
Clear
 Wind from NW
Wind: NW 13 mph , 20 km/h, Gust: 20 mph , 31 km/h
Temperature: 70°F , 21°C
Dew Point: 48°F , 9°C
Humidity: 46%
Barometer: 30.07 inHg , 1018.3 hPa
Clouds: Clear
Visibility: 10 miles , 16 km
2019/10/18 20:15 KE16 182015Z AUTO 32011G17KT 10SM CLR 21/09 A3007 RMK AO2
 
KWVI - Watsonville, California, USA
Distance from station: SSE 27mi, 44km
Updated: Fri, 18-Oct-2019 12:53pm PDT
Clear
Clear
 Wind from WSW
Wind: WSW 10 mph , 17 km/h
Temperature: 66°F , 19°C
Dew Point: 46°F , 8°C
Humidity: 49%
Barometer: 30.09 inHg , 1019 hPa
Clouds: Clear
Visibility: 10 miles , 16 km
2019/10/18 19:53 KWVI 181953Z AUTO 25009KT 10SM CLR 19/08 A3009 RMK AO2 SLP189 T01890083
KHAF - Half Moon Bay, California, USA
Distance from station: WNW 31mi, 50km
Updated: Fri, 18-Oct-2019 1:20pm PDT
Mist, Overcast
Mist, Overcast
 Wind from SW
Wind: SW 3 mph , 6 km/h
Temperature: 57°F , 14°C
Dew Point: 55°F , 13°C
Humidity: 94%
Barometer: 30.10 inHg , 1019.3 hPa
Summary: Mist
Clouds: Overcast
Visibility: 3/4 mile , 1.2 km
Cloud details: Overcast 300 ft
2019/10/18 20:20 KHAF 182020Z AUTO 22003KT 3/4SM BR OVC003 14/13 A3010 RMK AO2
 
KHWD - Hayward, California, USA
Distance from station: N 28mi, 44km
Updated: Fri, 18-Oct-2019 12:54pm PDT
Clear
Clear
 Wind from W
Wind: W 13 mph , 20 km/h
Temperature: 64°F , 18°C
Dew Point: 55°F , 13°C
Humidity: 73%
Barometer: 30.08 inHg , 1018.6 hPa
Clouds: Clear
Visibility: 10 miles , 16 km
2019/10/18 19:54 KHWD 181954Z 27011KT 10SM CLR 18/13 A3008 RMK AO2 SLP196 T01830128
KLVK - Livermore, California, USA
Distance from station: NNE 31mi, 51km
Updated: Fri, 18-Oct-2019 12:53pm PDT
Few Clouds
Few Clouds
 Wind from W
Wind: W 12 mph , 19 km/h
Temperature: 70°F , 21°C
Dew Point: 52°F , 11°C
Humidity: 53%
Barometer: 30.06 inHg , 1017.9 hPa
Clouds: Few Clouds
Visibility: 10 miles , 16 km
Cloud details: Few Clouds 3300 ft
2019/10/18 19:53 KLVK 181953Z 28010KT 10SM FEW033 21/11 A3006 RMK AO2 SLP176 T02060106